This is the latest recevied weather packets stored in our database for station/object IZ1GCT. If no packets are shown the sender has not sent any weather packets the latest 10 day(s).
| Time | Temp. | Humidity | Pressure | Rain* | Wind** | Luminosity | Snow |
|---|---|---|---|---|---|---|---|
| 1778136342 | 15.56° C | 50% | 1016.1 hPa | 0 mm | - | - | - |
| 1778136042 | 15.56° C | 51% | 1016 hPa | 0 mm | - | - | - |
| 1778135743 | 15.56° C | 48% | 1016 hPa | 0 mm | - | - | - |
| 1778135442 | 15.56° C | 52% | 1016 hPa | 0 mm | - | - | - |
| 1778135142 | 15° C | 54% | 1015.9 hPa | 0 mm | - | - | - |
| 1778134843 | 13.89° C | 54% | 1015.9 hPa | 0 mm | - | - | - |
| 1778134543 | 12.78° C | 56% | 1015.9 hPa | 0 mm | - | - | - |
| 1778134242 | 12.22° C | 58% | 1015.8 hPa | 0 mm | - | - | - |
| 1778133943 | 13.33° C | 53% | 1015.9 hPa | 0 mm | - | - | - |
| 1778133641 | 14.44° C | 56% | 1015.8 hPa | 0 mm | - | - | - |
| 1778133343 | 15° C | 60% | 1016 hPa | 0 mm | - | - | - |
| 1778133042 | 13.89° C | 63% | 1015.8 hPa | 0 mm | - | - | - |
| 1778132742 | 12.78° C | 66% | 1015.8 hPa | 0 mm | - | - | - |
| 1778132443 | 11.67° C | 74% | 1015.8 hPa | 0 mm | - | - | - |
| 1778132142 | 10° C | 84% | 1015.8 hPa | 0 mm | - | - | - |
| 1778131842 | 8.33° C | 88% | 1015.7 hPa | 0 mm | - | - | - |
| 1778131541 | 6.67° C | 92% | 1015.6 hPa | 0 mm | - | - | - |
| 1778131243 | 6.11° C | 91% | 1015.6 hPa | 0 mm | - | - | - |
| 1778130942 | 5.56° C | 91% | 1015.5 hPa | 0 mm | - | - | - |
| 1778130642 | 5.56° C | 91% | 1015.4 hPa | 0 mm | - | - | - |
| 1778130343 | 5.56° C | 90% | 1015.4 hPa | 0 mm | - | - | - |
| 1778130042 | 5° C | 90% | 1015.4 hPa | 0 mm | - | - | - |
| 1778129742 | 5° C | 90% | 1015.3 hPa | 0 mm | - | - | - |
| 1778129441 | 5° C | 89% | 1015.2 hPa | 0 mm | - | - | - |
| 1778129143 | 5.56° C | 89% | 1015.1 hPa | 0 mm | - | - | - |
* Rain latest hour (hover to see other rain measurements)
** Current wind speed in m/s (hover to see current wind gust speed)